Time;durP1;ratioP1;P1;durP2;ratioP2;P2;SDS_P1;SDS_P2;PMS_P1;PMS_P2;Temp;Humidity;BMP_temperature;BMP_pressure;BME280_temperature;BME280_humidity;BME280_pressure;Samples;Min_cycle;Max_cycle;Signal;HPM_P1;HPM_P2
2023/04/05 00:00:21;;;;;;;11.10;5.07;;;;;;;;;;4998367;28;20040;-84
2023/04/05 00:03:08;;;;;;;8.07;4.23;;;;;;;;;;5012966;28;20186;-84
2023/04/05 00:05:53;;;;;;;9.23;4.93;;;;;;;;;;5000016;28;20501;-84
2023/04/05 00:08:38;;;;;;;10.60;5.33;;;;;;;;;;5014106;28;20045;-84
2023/04/05 00:11:22;;;;;;;10.20;5.20;;;;;;;;;;5012758;28;20117;-84
2023/04/05 00:14:07;;;;;;;11.33;4.90;;;;;;;;;;5008682;28;20489;-84
2023/04/05 00:16:52;;;;;;;11.10;4.90;;;;;;;;;;5014269;28;20033;-83
2023/04/05 00:19:36;;;;;;;8.47;4.83;;;;;;;;;;5013955;28;20037;-84
2023/04/05 00:22:24;;;;;;;11.40;5.03;;;;;;;;;;5012347;28;20108;-84
2023/04/05 00:25:09;;;;;;;17.03;5.00;;;;;;;;;;5001559;28;20084;-86
2023/04/05 00:27:54;;;;;;;11.70;5.20;;;;;;;;;;5013781;28;20496;-85
2023/04/05 00:30:39;;;;;;;10.27;4.90;;;;;;;;;;4998743;28;20108;-86
2023/04/05 00:33:24;;;;;;;10.70;5.17;;;;;;;;;;5000436;28;20060;-86
2023/04/05 00:36:09;;;;;;;11.87;5.27;;;;;;;;;;5013045;28;20395;-87
2023/04/05 00:38:54;;;;;;;11.67;5.00;;;;;;;;;;5012576;28;20037;-86
2023/04/05 00:41:39;;;;;;;10.80;4.60;;;;;;;;;;5012345;28;20394;-86
2023/04/05 00:44:25;;;;;;;9.63;4.70;;;;;;;;;;5019462;28;20099;-86
2023/04/05 00:47:10;;;;;;;12.97;5.33;;;;;;;;;;4967511;28;20045;-86
2023/04/05 00:49:55;;;;;;;11.00;5.40;;;;;;;;;;5010137;28;20390;-86
2023/04/05 00:52:40;;;;;;;11.17;5.40;;;;;;;;;;5013400;28;20048;-86
2023/04/05 00:55:25;;;;;;;10.37;5.40;;;;;;;;;;5013207;28;20064;-86
2023/04/05 00:58:10;;;;;;;12.87;5.00;;;;;;;;;;5012805;28;20411;-86
2023/04/05 01:00:55;;;;;;;8.67;4.83;;;;;;;;;;5012277;28;20048;-86
2023/04/05 01:03:43;;;;;;;11.00;5.20;;;;;;;;;;5011051;28;20529;-86
2023/04/05 01:06:37;;;;;;;9.43;5.50;;;;;;;;;;5011703;28;20092;-86
2023/04/05 01:09:44;;;;;;;12.00;5.67;;;;;;;;;;5012785;28;20501;-86
2023/04/05 01:12:31;;;;;;;8.73;4.93;;;;;;;;;;4997904;28;20040;-86
2023/04/05 01:15:17;;;;;;;10.93;5.30;;;;;;;;;;5012277;28;20045;-85
2023/04/05 01:18:02;;;;;;;10.63;5.03;;;;;;;;;;5023001;28;20046;-85
2023/04/05 01:21:17;;;;;;;9.80;5.33;;;;;;;;;;4993173;28;20092;-86
2023/04/05 01:24:17;;;;;;;8.30;5.07;;;;;;;;;;4994930;28;20129;-86
2023/04/05 01:27:14;;;;;;;11.07;5.60;;;;;;;;;;5002445;28;20406;-86
2023/04/05 01:30:11;;;;;;;15.53;5.87;;;;;;;;;;4999350;28;20061;-85
2023/04/05 01:33:11;;;;;;;11.10;5.30;;;;;;;;;;5011576;28;20129;-85
2023/04/05 01:36:00;;;;;;;20.63;5.90;;;;;;;;;;5014751;28;20115;-85
2023/04/05 01:38:48;;;;;;;11.03;4.90;;;;;;;;;;5000793;28;20037;-86
2023/04/05 01:41:33;;;;;;;11.93;5.50;;;;;;;;;;5012017;28;20673;-85
2023/04/05 01:44:18;;;;;;;11.93;5.73;;;;;;;;;;5011019;28;20049;-85
2023/04/05 01:47:02;;;;;;;12.20;6.03;;;;;;;;;;4997878;28;20092;-85
2023/04/05 01:49:47;;;;;;;10.40;5.60;;;;;;;;;;5011316;28;20037;-86
2023/04/05 01:52:31;;;;;;;10.27;5.33;;;;;;;;;;5011814;28;20161;-86
2023/04/05 01:55:16;;;;;;;10.60;4.97;;;;;;;;;;5023253;28;20160;-88
2023/04/05 01:58:00;;;;;;;14.70;5.43;;;;;;;;;;5012437;28;20565;-86
2023/04/05 02:00:45;;;;;;;12.40;6.07;;;;;;;;;;4997503;28;20048;-86
2023/04/05 02:03:30;;;;;;;12.37;5.77;;;;;;;;;;5011485;28;20467;-86
2023/04/05 02:06:15;;;;;;;13.23;5.73;;;;;;;;;;5012223;28;20505;-86
2023/04/05 02:09:00;;;;;;;10.40;5.50;;;;;;;;;;4997875;28;20037;-86
2023/04/05 02:11:45;;;;;;;11.93;5.10;;;;;;;;;;5010845;28;20422;-86
2023/04/05 02:14:29;;;;;;;12.67;5.47;;;;;;;;;;5011486;28;20044;-86
2023/04/05 02:17:14;;;;;;;10.73;5.80;;;;;;;;;;4997222;28;20113;-86
2023/04/05 02:20:01;;;;;;;11.00;6.33;;;;;;;;;;5012033;28;20061;-87
2023/04/05 02:22:46;;;;;;;11.57;6.03;;;;;;;;;;5010662;28;20041;-86
2023/04/05 02:25:30;;;;;;;12.87;5.83;;;;;;;;;;5011361;28;20044;-86
2023/04/05 02:28:15;;;;;;;11.70;5.97;;;;;;;;;;4997107;28;20084;-86
2023/04/05 02:30:59;;;;;;;13.33;6.50;;;;;;;;;;5010234;28;20104;-86
2023/04/05 02:33:44;;;;;;;12.47;6.23;;;;;;;;;;4996565;28;20121;-86
2023/04/05 02:36:29;;;;;;;12.13;5.77;;;;;;;;;;5011220;28;20032;-86
2023/04/05 02:39:13;;;;;;;9.53;5.60;;;;;;;;;;5010445;28;20092;-86
2023/04/05 02:41:58;;;;;;;12.07;5.63;;;;;;;;;;4999241;28;20050;-85
2023/04/05 02:44:42;;;;;;;12.07;5.60;;;;;;;;;;5011059;28;20337;-86
2023/04/05 02:47:27;;;;;;;14.40;6.63;;;;;;;;;;5010150;28;20041;-86
2023/04/05 02:50:12;;;;;;;13.73;6.07;;;;;;;;;;4983056;28;20406;-86
2023/04/05 02:52:56;;;;;;;12.03;5.83;;;;;;;;;;5011630;28;20088;-86
2023/04/05 02:55:41;;;;;;;9.47;5.93;;;;;;;;;;5011027;28;20490;-86
2023/04/05 02:58:25;;;;;;;14.53;6.03;;;;;;;;;;4996121;28;20076;-86
2023/04/05 03:01:10;;;;;;;14.73;6.00;;;;;;;;;;5004420;28;20100;-85
2023/04/05 03:03:55;;;;;;;12.47;6.23;;;;;;;;;;5011125;28;20176;-86
2023/04/05 03:06:43;;;;;;;10.37;5.70;;;;;;;;;;4998064;28;20558;-86
2023/04/05 03:09:32;;;;;;;17.83;7.90;;;;;;;;;;5009801;28;20045;-86
2023/04/05 03:12:17;;;;;;;13.00;5.20;;;;;;;;;;5010064;28;20088;-85
2023/04/05 03:15:01;;;;;;;15.97;6.47;;;;;;;;;;5010415;28;20037;-86
2023/04/05 03:17:46;;;;;;;10.90;6.10;;;;;;;;;;4996017;28;20068;-86
2023/04/05 03:20:30;;;;;;;12.03;5.93;;;;;;;;;;5010338;28;20137;-85
2023/04/05 03:23:15;;;;;;;15.40;6.40;;;;;;;;;;5011127;28;20053;-85
2023/04/05 03:26:00;;;;;;;12.43;6.87;;;;;;;;;;5010759;28;20033;-85
2023/04/05 03:28:45;;;;;;;13.53;6.97;;;;;;;;;;4995799;28;20628;-85
2023/04/05 03:31:29;;;;;;;11.67;7.20;;;;;;;;;;4999092;28;20096;-86
2023/04/05 03:34:14;;;;;;;11.70;6.23;;;;;;;;;;4995987;28;20076;-86
2023/04/05 03:36:59;;;;;;;14.77;6.47;;;;;;;;;;5010967;28;20037;-85
2023/04/05 03:39:44;;;;;;;12.83;6.13;;;;;;;;;;5013064;28;20066;-86
2023/04/05 03:42:29;;;;;;;12.53;6.30;;;;;;;;;;5014577;28;20044;-86
2023/04/05 03:45:13;;;;;;;12.33;7.43;;;;;;;;;;5003881;28;20453;-85
2023/04/05 03:47:58;;;;;;;13.50;6.70;;;;;;;;;;5017005;28;20064;-86
2023/04/05 03:50:43;;;;;;;12.93;7.03;;;;;;;;;;5006106;28;20045;-86
2023/04/05 03:53:28;;;;;;;13.70;6.40;;;;;;;;;;5014742;28;20150;-85
2023/04/05 03:56:14;;;;;;;14.70;6.40;;;;;;;;;;4999413;28;20076;-85
2023/04/05 03:58:58;;;;;;;11.80;7.17;;;;;;;;;;5020528;28;20041;-85
2023/04/05 04:01:43;;;;;;;14.10;6.43;;;;;;;;;;4999106;28;20545;-85
2023/04/05 04:04:28;;;;;;;14.10;6.77;;;;;;;;;;5014459;28;20108;-85
2023/04/05 04:07:13;;;;;;;15.47;6.87;;;;;;;;;;5014404;28;20041;-85
2023/04/05 04:09:58;;;;;;;15.43;6.50;;;;;;;;;;5014085;28;20053;-85
2023/04/05 04:12:44;;;;;;;14.87;6.90;;;;;;;;;;5014456;28;20056;-85
2023/04/05 04:15:28;;;;;;;12.00;5.83;;;;;;;;;;5014018;28;20402;-85
2023/04/05 04:18:13;;;;;;;12.33;6.13;;;;;;;;;;5014233;28;20164;-85
2023/04/05 04:20:58;;;;;;;14.40;6.53;;;;;;;;;;5013870;28;20165;-85
2023/04/05 04:23:44;;;;;;;14.03;7.20;;;;;;;;;;5012332;28;20084;-85
2023/04/05 04:26:29;;;;;;;11.70;6.40;;;;;;;;;;4999748;28;20096;-85
2023/04/05 04:29:17;;;;;;;11.07;6.13;;;;;;;;;;5013809;28;20457;-85
2023/04/05 04:32:04;;;;;;;15.13;6.97;;;;;;;;;;5014798;28;20085;-85
2023/04/05 04:34:49;;;;;;;12.93;7.27;;;;;;;;;;5013202;28;20168;-86
2023/04/05 04:37:36;;;;;;;14.53;7.77;;;;;;;;;;5013650;28;20080;-85
2023/04/05 04:40:21;;;;;;;13.23;7.50;;;;;;;;;;5013868;28;20559;-85
2023/04/05 04:43:17;;;;;;;14.67;7.63;;;;;;;;;;5013695;28;20399;-85
2023/04/05 04:46:05;;;;;;;14.63;8.37;;;;;;;;;;5013944;28;20070;-86
2023/04/05 04:48:50;;;;;;;20.23;8.70;;;;;;;;;;5012850;28;20041;-86
2023/04/05 04:51:36;;;;;;;14.60;8.07;;;;;;;;;;5012297;28;20398;-86
2023/04/05 04:54:21;;;;;;;15.57;7.50;;;;;;;;;;4997751;28;20072;-86
2023/04/05 04:57:06;;;;;;;12.63;7.53;;;;;;;;;;5013048;28;20065;-86
2023/04/05 04:59:50;;;;;;;17.30;7.67;;;;;;;;;;5018297;28;20147;-85
2023/04/05 05:02:36;;;;;;;14.40;7.63;;;;;;;;;;5006922;28;20128;-85
2023/04/05 05:05:21;;;;;;;13.57;8.70;;;;;;;;;;5027834;28;20052;-87
2023/04/05 05:08:06;;;;;;;16.57;7.87;;;;;;;;;;5014286;28;20440;-86
2023/04/05 05:10:52;;;;;;;19.43;8.70;;;;;;;;;;4998216;28;20096;-85
2023/04/05 05:13:37;;;;;;;15.93;8.60;;;;;;;;;;5028005;28;20048;-85
2023/04/05 05:16:22;;;;;;;18.33;9.07;;;;;;;;;;5012420;28;20068;-85
2023/04/05 05:19:07;;;;;;;16.83;9.33;;;;;;;;;;5003844;28;20060;-86
2023/04/05 05:21:52;;;;;;;18.03;8.30;;;;;;;;;;5016349;28;20418;-86
2023/04/05 05:24:37;;;;;;;17.00;8.33;;;;;;;;;;5021396;28;20052;-86
2023/04/05 05:27:21;;;;;;;16.83;9.10;;;;;;;;;;5007490;28;20036;-86
2023/04/05 05:30:06;;;;;;;16.30;8.97;;;;;;;;;;4995868;28;20466;-86
2023/04/05 05:32:51;;;;;;;14.93;8.67;;;;;;;;;;4991580;28;20061;-86
2023/04/05 05:35:36;;;;;;;21.93;9.00;;;;;;;;;;4978278;28;20044;-86
2023/04/05 05:38:21;;;;;;;20.13;8.00;;;;;;;;;;4991897;28;20056;-86
2023/04/05 05:41:05;;;;;;;16.00;7.87;;;;;;;;;;4992294;28;20657;-86
2023/04/05 05:43:50;;;;;;;16.30;8.83;;;;;;;;;;4992196;28;20533;-86
2023/04/05 05:46:35;;;;;;;16.70;8.97;;;;;;;;;;4991874;28;20065;-86
2023/04/05 05:49:20;;;;;;;16.27;9.63;;;;;;;;;;4993147;28;20036;-86
2023/04/05 05:52:05;;;;;;;15.27;8.67;;;;;;;;;;4970210;28;20046;-85
2023/04/05 05:54:50;;;;;;;15.40;9.13;;;;;;;;;;4977229;28;20111;-85
2023/04/05 05:57:36;;;;;;;17.77;9.37;;;;;;;;;;4992543;28;20034;-85
2023/04/05 06:00:20;;;;;;;19.20;10.33;;;;;;;;;;4992577;28;20032;-85
2023/04/05 06:03:05;;;;;;;17.70;10.20;;;;;;;;;;4991937;28;20092;-85
2023/04/05 06:05:53;;;;;;;23.57;11.33;;;;;;;;;;4970815;28;20072;-86
2023/04/05 06:08:38;;;;;;;22.10;11.20;;;;;;;;;;4992389;28;20078;-85
2023/04/05 06:11:24;;;;;;;21.53;11.23;;;;;;;;;;4992635;28;20598;-85
2023/04/05 06:14:08;;;;;;;31.33;12.23;;;;;;;;;;4992011;28;20537;-85
2023/04/05 06:16:53;;;;;;;21.90;11.60;;;;;;;;;;4991700;28;20049;-86
2023/04/05 06:19:37;;;;;;;20.10;12.03;;;;;;;;;;4992412;28;20084;-85
2023/04/05 06:22:23;;;;;;;20.90;11.43;;;;;;;;;;4992171;28;20088;-85
2023/04/05 06:25:08;;;;;;;24.77;11.73;;;;;;;;;;4990603;28;20104;-85
2023/04/05 06:27:53;;;;;;;21.73;11.80;;;;;;;;;;4991734;28;20064;-86
2023/04/05 06:30:38;;;;;;;20.13;11.67;;;;;;;;;;4994354;28;20054;-84
2023/04/05 06:33:22;;;;;;;25.93;12.07;;;;;;;;;;4997065;28;20068;-84
2023/04/05 06:36:07;;;;;;;19.87;11.13;;;;;;;;;;4982781;28;20120;-84
2023/04/05 06:38:52;;;;;;;26.67;12.27;;;;;;;;;;5011233;28;20573;-86
2023/04/05 06:41:36;;;;;;;18.40;10.83;;;;;;;;;;5011700;28;20057;-84
2023/04/05 06:44:21;;;;;;;21.37;12.00;;;;;;;;;;5010327;28;20515;-85
2023/04/05 06:47:05;;;;;;;22.70;11.23;;;;;;;;;;5009962;28;20118;-85
2023/04/05 06:49:50;;;;;;;20.80;11.77;;;;;;;;;;5010621;28;20133;-85
2023/04/05 06:52:34;;;;;;;20.43;10.83;;;;;;;;;;5001511;28;20402;-86
2023/04/05 06:55:19;;;;;;;17.37;11.13;;;;;;;;;;4996806;28;20504;-86
2023/04/05 06:58:04;;;;;;;19.60;10.73;;;;;;;;;;5010872;28;20534;-85
2023/04/05 07:00:49;;;;;;;15.47;10.53;;;;;;;;;;4983043;28;20041;-86
2023/04/05 07:03:36;;;;;;;20.03;10.83;;;;;;;;;;5011462;28;20518;-88
2023/04/05 07:06:22;;;;;;;16.77;10.90;;;;;;;;;;4983224;28;20056;-86
2023/04/05 07:09:07;;;;;;;17.90;10.30;;;;;;;;;;5010737;28;20053;-86
2023/04/05 07:11:51;;;;;;;17.70;9.63;;;;;;;;;;5010164;28;20037;-86
2023/04/05 07:14:37;;;;;;;26.23;10.27;;;;;;;;;;5015212;28;20096;-88
2023/04/05 07:17:21;;;;;;;12.83;9.20;;;;;;;;;;5007980;28;20077;-88
2023/04/05 07:20:07;;;;;;;16.10;8.75;;;;;;;;;;5003474;28;20567;-85
2023/04/05 07:22:51;;;;;;;14.45;9.13;;;;;;;;;;5015282;28;20053;-85
2023/04/05 07:25:35;;;;;;;13.70;8.43;;;;;;;;;;5014994;28;20084;-85
2023/04/05 07:28:20;;;;;;;15.50;8.27;;;;;;;;;;5013642;28;20049;-85
2023/04/05 07:31:05;;;;;;;13.40;7.80;;;;;;;;;;5013372;28;20130;-85
2023/04/05 07:33:50;;;;;;;15.15;7.60;;;;;;;;;;5014859;28;20100;-86
2023/04/05 07:36:35;;;;;;;11.63;8.07;;;;;;;;;;5014961;28;20036;-85
2023/04/05 07:39:20;;;;;;;11.98;7.60;;;;;;;;;;5014302;28;20500;-85
2023/04/05 07:42:05;;;;;;;15.23;7.60;;;;;;;;;;5014336;28;20041;-86
2023/04/05 07:44:50;;;;;;;15.18;7.32;;;;;;;;;;5013791;28;20052;-85
2023/04/05 07:47:34;;;;;;;14.57;7.70;;;;;;;;;;5014544;28;20088;-85
2023/04/05 07:50:19;;;;;;;12.13;7.25;;;;;;;;;;5014191;28;20040;-85
2023/04/05 07:53:04;;;;;;;15.85;7.72;;;;;;;;;;5013060;28;20116;-86
2023/04/05 07:55:49;;;;;;;13.20;7.65;;;;;;;;;;4999652;28;20111;-85
2023/04/05 07:58:34;;;;;;;14.00;7.68;;;;;;;;;;5013506;28;20119;-85
2023/04/05 08:01:20;;;;;;;10.45;6.20;;;;;;;;;;5012787;28;20040;-85
2023/04/05 08:04:04;;;;;;;10.73;6.50;;;;;;;;;;4999190;28;20057;-86
2023/04/05 08:06:49;;;;;;;13.05;6.93;;;;;;;;;;5013274;28;20088;-85
2023/04/05 08:09:35;;;;;;;12.32;6.45;;;;;;;;;;4999454;28;20509;-85
2023/04/05 08:12:19;;;;;;;11.30;5.80;;;;;;;;;;5013785;28;20041;-85
2023/04/05 08:15:04;;;;;;;10.27;6.40;;;;;;;;;;4998841;28;20121;-88
2023/04/05 08:17:49;;;;;;;10.93;6.57;;;;;;;;;;5014145;28;20037;-85
2023/04/05 08:20:37;;;;;;;11.13;6.00;;;;;;;;;;5014004;28;20172;-85
2023/04/05 08:23:22;;;;;;;11.18;5.45;;;;;;;;;;5012521;28;20080;-85
2023/04/05 08:26:07;;;;;;;11.68;7.43;;;;;;;;;;5012712;28;20084;-86
2023/04/05 08:28:52;;;;;;;10.07;5.80;;;;;;;;;;4999085;28;20076;-84
2023/04/05 08:31:36;;;;;;;9.70;6.50;;;;;;;;;;4999137;28;20513;-86
2023/04/05 08:34:20;;;;;;;9.50;5.78;;;;;;;;;;5013438;28;20053;-85
2023/04/05 08:37:05;;;;;;;13.85;6.65;;;;;;;;;;5012593;28;20548;-85
2023/04/05 08:39:50;;;;;;;9.43;5.40;;;;;;;;;;5013812;28;20060;-85
2023/04/05 08:43:01;;;;;;;8.95;6.10;;;;;;;;;;4998777;28;20092;-85
2023/04/05 08:45:49;;;;;;;11.45;5.88;;;;;;;;;;5013478;28;20104;-85
2023/04/05 08:48:40;;;;;;;7.68;4.70;;;;;;;;;;5013550;28;20044;-86
2023/04/05 08:51:25;;;;;;;11.30;5.53;;;;;;;;;;5013020;28;20084;-85
2023/04/05 08:54:10;;;;;;;9.95;5.18;;;;;;;;;;5012870;28;20044;-87
2023/04/05 08:56:58;;;;;;;7.70;4.72;;;;;;;;;;5013436;28;20544;-85
2023/04/05 08:59:44;;;;;;;9.65;5.70;;;;;;;;;;5013270;28;20096;-86
2023/04/05 09:02:29;;;;;;;7.78;5.18;;;;;;;;;;5011732;28;20037;-86
2023/04/05 09:05:14;;;;;;;8.70;4.80;;;;;;;;;;5011806;28;20110;-86
2023/04/05 09:07:59;;;;;;;8.77;5.10;;;;;;;;;;5013145;28;20041;-82
2023/04/05 09:10:44;;;;;;;10.68;5.78;;;;;;;;;;5001131;28;20498;-83
2023/04/05 09:13:29;;;;;;;10.45;4.88;;;;;;;;;;5014741;28;20048;-82
2023/04/05 09:16:15;;;;;;;9.98;5.03;;;;;;;;;;5011562;28;20080;-83
2023/04/05 09:19:00;;;;;;;8.27;4.85;;;;;;;;;;5011837;28;20076;-83
2023/04/05 09:21:58;;;;;;;9.38;4.63;;;;;;;;;;5012882;28;20064;-83
2023/04/05 09:24:45;;;;;;;7.55;4.70;;;;;;;;;;5012739;28;20478;-84
2023/04/05 09:27:30;;;;;;;9.27;4.35;;;;;;;;;;5012130;28;20075;-83
2023/04/05 09:30:22;;;;;;;6.32;3.78;;;;;;;;;;5011137;28;20088;-84
2023/04/05 09:33:09;;;;;;;9.65;4.65;;;;;;;;;;5011535;28;20056;-83
2023/04/05 09:35:54;;;;;;;7.72;4.25;;;;;;;;;;5012257;28;20040;-83
2023/04/05 09:38:46;;;;;;;8.05;3.92;;;;;;;;;;5012461;28;20548;-82
2023/04/05 09:41:31;;;;;;;7.95;4.53;;;;;;;;;;5001350;28;20398;-83
2023/04/05 09:44:15;;;;;;;7.47;4.60;;;;;;;;;;5010891;28;20068;-88
2023/04/05 09:47:15;;;;;;;8.45;4.43;;;;;;;;;;4997805;28;20427;-85
2023/04/05 09:50:00;;;;;;;9.02;4.53;;;;;;;;;;5012602;28;20113;-85
2023/04/05 09:52:46;;;;;;;8.48;4.68;;;;;;;;;;5012296;28;20112;-85
2023/04/05 09:55:32;;;;;;;7.82;4.35;;;;;;;;;;5011936;28;20592;-86
2023/04/05 09:58:20;;;;;;;8.80;4.53;;;;;;;;;;4997612;28;20564;-87
2023/04/05 10:01:05;;;;;;;6.05;4.22;;;;;;;;;;5011784;28;20399;-85
2023/04/05 10:03:49;;;;;;;7.97;3.92;;;;;;;;;;4997472;28;20096;-85
2023/04/05 10:06:41;;;;;;;8.55;4.55;;;;;;;;;;5010501;28;20032;-85
2023/04/05 10:09:25;;;;;;;8.13;4.03;;;;;;;;;;5010605;28;20114;-83
2023/04/05 10:12:12;;;;;;;7.15;4.35;;;;;;;;;;4996987;28;20498;-83
2023/04/05 10:14:56;;;;;;;7.22;4.30;;;;;;;;;;5011894;28;20401;-84
2023/04/05 10:18:01;;;;;;;9.25;4.63;;;;;;;;;;5010938;28;20045;-83
2023/04/05 10:20:49;;;;;;;11.82;4.30;;;;;;;;;;5011951;28;20041;-83
2023/04/05 10:23:34;;;;;;;8.68;4.43;;;;;;;;;;5010594;28;20129;-83
2023/04/05 10:26:22;;;;;;;8.93;4.15;;;;;;;;;;5012379;28;20120;-85
2023/04/05 10:29:19;;;;;;;10.30;4.68;;;;;;;;;;5011745;28;20490;-84
2023/04/05 10:32:23;;;;;;;6.30;4.28;;;;;;;;;;5010110;28;20060;-83
2023/04/05 10:35:07;;;;;;;7.28;4.72;;;;;;;;;;5011777;28;20057;-83
2023/04/05 10:38:07;;;;;;;8.15;4.18;;;;;;;;;;5010808;28;20044;-83
2023/04/05 10:40:57;;;;;;;6.72;4.45;;;;;;;;;;5011633;28;20583;-83
2023/04/05 10:43:42;;;;;;;8.75;5.03;;;;;;;;;;5011036;28;20080;-82
2023/04/05 10:46:27;;;;;;;7.07;4.47;;;;;;;;;;5011144;28;20217;-84
2023/04/05 10:49:15;;;;;;;7.00;4.68;;;;;;;;;;4996353;28;20407;-83
2023/04/05 10:52:00;;;;;;;6.97;4.22;;;;;;;;;;5010614;28;20509;-83
2023/04/05 10:54:45;;;;;;;7.47;4.63;;;;;;;;;;5009816;28;20044;-83
2023/04/05 10:57:30;;;;;;;7.22;4.60;;;;;;;;;;4996233;28;20077;-83
2023/04/05 11:00:15;;;;;;;7.50;4.35;;;;;;;;;;5011657;28;20041;-83
2023/04/05 11:03:00;;;;;;;8.23;4.53;;;;;;;;;;5010176;28;20445;-83
2023/04/05 11:05:45;;;;;;;6.25;4.10;;;;;;;;;;4996259;28;20115;-83
2023/04/05 11:08:30;;;;;;;8.10;4.50;;;12.30;65.50;;;;;;5010900;28;20445;-83
2023/04/05 11:11:16;;;;;;;10.45;4.60;;;;;;;;;;5011548;28;20072;-83
2023/04/05 11:14:01;;;;;;;8.07;4.15;;;;;;;;;;5010401;28;20041;-83
2023/04/05 11:16:47;;;;;;;7.40;4.22;;;;;;;;;;5010769;28;20060;-83
2023/04/05 11:19:47;;;;;;;13.10;4.07;;;;;;;;;;5009405;28;20394;-83
2023/04/05 11:22:31;;;;;;;8.18;4.35;;;;;;;;;;4997765;28;20394;-82
2023/04/05 11:25:24;;;;;;;7.78;4.25;;;;;;;;;;5011202;28;20117;-83
2023/04/05 11:28:09;;;;;;;6.90;4.15;;;;;;;;;;5011325;28;20084;-83
2023/04/05 11:30:55;;;;;;;7.45;3.97;;;;;;;;;;5010239;28;20457;-82
2023/04/05 11:33:58;;;;;;;6.22;4.00;;;;;;;;;;5010787;28;20145;-83
2023/04/05 11:36:47;;;;;;;6.50;3.90;;;;;;;;;;5009587;28;20041;-83
2023/04/05 11:39:32;;;;;;;7.10;4.25;;;;;;;;;;5010555;28;20064;-83
2023/04/05 11:42:17;;;;;;;5.60;3.80;;;;;;;;;;5011680;28;20055;-83
2023/04/05 11:45:03;;;;;;;7.53;4.32;;;;;;;;;;5011263;28;20080;-84
2023/04/05 11:47:48;;;;;;;6.05;3.55;;;;;;;;;;5009765;28;20045;-83
2023/04/05 11:50:33;;;;;;;6.57;4.28;;;;;;;;;;5009675;28;20068;-84
2023/04/05 11:53:18;;;;;;;6.22;3.97;;;;;;;;;;5011565;28;20077;-83
2023/04/05 11:56:07;;;;;;;8.20;4.43;;;;;;;;;;5013456;28;20057;-85
2023/04/05 11:58:52;;;;;;;6.55;3.67;;;;;;;;;;5010339;28;20040;-82
2023/04/05 12:01:38;;;;;;;6.85;3.95;;;;;;;;;;5014055;28;20041;-83
2023/04/05 12:04:23;;;;;;;6.57;4.20;;;;;;;;;;5013167;28;20053;-83
2023/04/05 12:07:09;;;;;;;6.78;3.65;;;;;;;;;;5014452;28;20092;-83
2023/04/05 12:10:07;;;;;;;6.35;3.78;;;;;;;;;;5013651;28;20076;-83
2023/04/05 12:12:54;;;;;;;6.32;4.03;;;;;;;;;;5012869;28;20122;-83
2023/04/05 12:15:41;;;;;;;4.93;3.22;;;;;;;;;;4999125;28;20045;-83
2023/04/05 12:18:26;;;;;;;7.13;3.97;;;;;;;;;;4999167;28;20048;-83
2023/04/05 12:21:11;;;;;;;6.78;3.90;;;;;;;;;;5013147;28;20469;-83
2023/04/05 12:23:56;;;;;;;7.28;4.43;;;;;;;;;;5013407;28;20084;-83
2023/04/05 12:26:41;;;;;;;8.23;3.95;;;;;;;;;;4998926;28;20048;-83
2023/04/05 12:29:26;;;;;;;7.18;4.00;;;;;;;;;;5001913;28;20037;-83
2023/04/05 12:32:11;;;;;;;9.18;3.78;;;;;;;;;;5012608;28;20089;-84
2023/04/05 12:34:56;;;;;;;6.22;3.95;;;;;;;;;;5013510;28;20111;-83
2023/04/05 12:37:41;;;;;;;7.65;4.43;;;;;;;;;;5013287;28;20125;-84
2023/04/05 12:40:29;;;;;;;5.28;3.53;;;;;;;;;;5013849;28;20052;-85
2023/04/05 12:43:18;;;;;;;9.40;4.32;;;;;;;;;;5017724;28;20137;-84
2023/04/05 12:46:15;;;;;;;8.38;4.35;;;13.20;57.30;;;;;;5013416;28;20402;-84
2023/04/05 12:49:00;;;;;;;8.52;3.88;;;;;;;;;;5013816;28;20138;-88
2023/04/05 12:51:45;;;;;;;7.68;4.18;;;;;;;;;;5014611;28;20040;-84
2023/04/05 12:54:31;;;;;;;5.65;3.58;;;;;;;;;;5011635;28;20073;-84
2023/04/05 12:57:15;;;;;;;6.00;3.50;;;;;;;;;;5015766;28;20121;-83
2023/04/05 13:00:00;;;;;;;6.45;4.00;;;;;;;;;;4999528;28;20041;-84
2023/04/05 13:02:49;;;;;;;5.88;3.55;;;;;;;;;;5014188;28;20045;-83
2023/04/05 13:05:34;;;;;;;7.07;3.72;;;;;;;;;;5006211;28;20033;-83
2023/04/05 13:08:19;;;;;;;7.28;3.92;;;;;;;;;;5016865;28;20084;-83
2023/04/05 13:11:04;;;;;;;6.85;3.60;;;;;;;;;;5014220;28;20088;-83
2023/04/05 13:13:49;;;;;;;6.53;3.42;;;;;;;;;;4997931;28;20513;-83
2023/04/05 13:16:34;;;;;;;5.20;3.80;;;;;;;;;;5012105;28;20044;-83
2023/04/05 13:19:19;;;;;;;6.15;4.03;;;;;;;;;;5012879;28;20033;-84
2023/04/05 13:22:04;;;;;;;6.57;3.70;;;;;;;;;;5009858;28;20064;-83
2023/04/05 13:24:51;;;;;;;8.65;3.60;;;;;;;;;;4991218;28;20123;-85
2023/04/05 13:27:35;;;;;;;7.32;3.65;;;;;;;;;;5017700;28;20032;-88
2023/04/05 13:30:20;;;;;;;6.80;3.67;;;;;;;;;;5010258;28;20133;-83
2023/04/05 13:33:04;;;;;;;6.65;3.97;;;;;;;;;;5007916;28;20084;-82
2023/04/05 13:35:49;;;;;;;5.03;3.40;;;;;;;;;;5024163;28;20394;-82
2023/04/05 13:38:34;;;;;;;7.55;3.40;;;;;;;;;;5022187;28;20045;-83
2023/04/05 13:41:18;;;;;;;7.40;3.60;;;;;;;;;;5011625;28;20040;-84
2023/04/05 13:44:03;;;;;;;5.63;3.42;;;;;;;;;;5017793;28;20049;-83
2023/04/05 13:46:47;;;;;;;4.95;3.50;;;;;;;;;;5023840;28;20473;-84
2023/04/05 13:49:32;;;;;;;6.70;3.53;;;;;;;;;;5016544;28;20082;-82
2023/04/05 13:52:17;;;;;;;5.10;3.55;;;;;;;;;;5006242;28;20080;-82
2023/04/05 13:55:01;;;;;;;7.82;3.80;;;;;;;;;;5020306;28;20045;-84
2023/04/05 13:57:46;;;;;;;6.43;3.33;;;;;;;;;;5006350;28;20505;-84
2023/04/05 14:00:31;;;;;;;6.75;3.25;;;;;;;;;;5018957;28;20085;-84
2023/04/05 14:03:16;;;;;;;8.20;5.43;;;;;;;;;;4997413;28;20126;-83
2023/04/05 14:06:01;;;;;;;7.03;3.92;;;;;;;;;;5015188;28;20041;-83
2023/04/05 14:08:45;;;;;;;5.50;3.30;;;;;;;;;;5005498;28;20049;-85
2023/04/05 14:11:36;;;;;;;7.63;4.43;;;;;;;;;;4997422;28;20064;-89
2023/04/05 14:14:33;;;;;;;5.90;3.88;;;;;;;;;;5011091;28;20049;-88
2023/04/05 14:17:26;;;;;;;5.70;3.70;;;;;;;;;;5010818;28;20040;-87
2023/04/05 14:20:17;;;;;;;7.50;3.70;;;;;;;;;;5010384;28;20115;-88
2023/04/05 14:23:05;;;;;;;6.38;3.95;;;;;;;;;;5009413;28;20095;-88
2023/04/05 14:25:50;;;;;;;6.70;3.40;;;;;;;;;;5010087;28;20117;-88
2023/04/05 14:28:37;;;;;;;6.03;3.85;;;;;;;;;;5011766;28;20092;-87
2023/04/05 14:31:24;;;;;;;5.82;3.25;;;;;;;;;;5012402;28;20399;-87
2023/04/05 14:34:09;;;;;;;5.95;3.55;;;;;;;;;;4998254;28;20029;-86
2023/04/05 14:37:02;;;;;;;7.07;3.55;;;;;;;;;;5012560;28;20041;-87
2023/04/05 14:39:47;;;;;;;8.32;3.53;;;;;;;;;;4995102;28;20449;-87
2023/04/05 14:42:34;;;;;;;7.10;3.80;;;;;;;;;;4995702;28;20044;-89
2023/04/05 14:45:19;;;;;;;7.07;3.88;;;;;;;;;;5010922;28;20489;-86
2023/04/05 14:48:04;;;;;;;7.68;4.25;;;;;;;;;;4983720;28;20092;-86
2023/04/05 14:50:50;;;;;;;7.45;3.40;;;;;;;;;;4996514;28;20092;-84
2023/04/05 14:54:21;;;;;;;5.28;3.80;;;;;;;;;;5129240;27;20391;-83
2023/04/05 14:57:06;;;;;;;8.40;3.72;;;;;;;;;;5093315;28;20132;-84
2023/04/05 14:59:51;;;;;;;7.60;3.80;;;;;;;;;;5107252;28;20042;-84
2023/04/05 15:02:36;;;;;;;7.40;3.95;;;;;;;;;;5093681;28;20078;-83
2023/04/05 15:05:21;;;;;;;5.78;3.47;;;;;;;;;;5109203;28;20081;-84
2023/04/05 15:08:06;;;;;;;7.20;3.40;;;;;;;;;;5083659;28;20038;-82
2023/04/05 15:10:51;;;;;;;4.53;3.55;;;;;;;;;;5093585;28;20038;-84
2023/04/05 15:13:36;;;;;;;5.25;3.42;;;;;;;;;;5108679;28;20606;-83
2023/04/05 15:16:21;;;;;;;7.97;3.53;;;;;;;;;;5108865;28;20404;-83
2023/04/05 15:19:06;;;;;;;5.55;3.55;;;;;;;;;;5105284;28;20034;-83
2023/04/05 15:21:51;;;;;;;9.15;4.35;;;;;;;;;;5092893;28;20035;-85
2023/04/05 15:24:40;;;;;;;6.47;4.28;;;;;;;;;;5108824;28;20088;-83
2023/04/05 15:27:25;;;;;;;6.13;3.45;;;;;;;;;;5093213;28;20058;-86
2023/04/05 15:30:10;;;;;;;7.30;3.42;;;;;;;;;;5092826;28;20085;-84
2023/04/05 15:32:54;;;;;;;6.38;3.78;;;;;;;;;;5087871;28;20073;-83
2023/04/05 15:35:40;;;;;;;6.32;3.53;;;;;;;;;;5108625;28;20129;-83
2023/04/05 15:38:24;;;;;;;5.57;3.65;;;;;;;;;;5079027;28;20117;-83
2023/04/05 15:41:09;;;;;;;5.90;3.72;;;;;;;;;;5092551;28;20104;-83
2023/04/05 15:43:53;;;;;;;6.35;3.88;;;;;;;;;;5092827;28;20128;-83
2023/04/05 15:46:38;;;;;;;7.50;3.72;;;;;;;;;;5092779;28;20086;-83
2023/04/05 15:49:23;;;;;;;6.80;4.10;;;;;;;;;;5107744;28;20049;-83
2023/04/05 15:52:08;;;;;;;7.32;3.80;;;;;;;;;;5091554;28;20050;-82
2023/04/05 15:54:53;;;;;;;6.60;3.67;;;;;;;;;;5094982;28;20042;-84
2023/04/05 15:57:38;;;;;;;6.82;4.00;;;;;;;;;;5108021;28;20035;-83
2023/04/05 16:00:22;;;;;;;7.30;4.13;;;;;;;;;;5084806;28;20070;-83
2023/04/05 16:03:07;;;;;;;6.75;4.00;;;;;;;;;;5107232;28;20092;-83
2023/04/05 16:05:51;;;;;;;7.75;3.72;;;;;;;;;;5093998;28;20046;-83
2023/04/05 16:08:36;;;;;;;11.27;4.18;;;;;;;;;;5082063;28;20113;-82
2023/04/05 16:11:21;;;;;;;7.75;4.28;;;;;;;;;;5078433;28;20078;-85
2023/04/05 16:14:06;;;;;;;8.20;3.88;;;;;;;;;;5091950;28;20039;-84
2023/04/05 16:16:53;;;;;;;6.47;3.70;;;;;;;;;;5093938;28;20043;-86
2023/04/05 16:19:38;;;;;;;6.43;3.60;;;;;;;;;;5094190;28;20038;-86
2023/04/05 16:22:49;;;;;;;6.85;3.65;;;;;;;;;;5063957;28;20101;-88
2023/04/05 16:25:33;;;;;;;7.47;4.35;;;;;;;;;;5078558;28;20115;-83